Time;durP1;ratioP1;P1;durP2;ratioP2;P2;SDS_P1;SDS_P2;PMS_P1;PMS_P2;Temp;Humidity;BMP_temperature;BMP_pressure;BME280_temperature;BME280_humidity;BME280_pressure;Samples;Min_cycle;Max_cycle;Signal;HPM_P1;HPM_P2
2021/10/20 00:00:29;;;;;;;;;;;;;;;;;;2098926;28;1260;-82
2021/10/20 00:01:34;;;;;;;;;;;;;;;;;;2099367;28;1234;-83
2021/10/20 00:02:34;;;;;;;;;;;;;;;;;;2108303;28;848;-83
2021/10/20 00:03:36;;;;;;;;;;;;;;;;;;2107843;28;1368;-84
2021/10/20 00:04:39;;;;;;;;;;;;;;;;;;2100807;28;1246;-84
2021/10/20 00:05:39;;;;;;;;;;;;;;;;;;2100107;28;1183;-84
2021/10/20 00:06:41;;;;;;;;;;;;;;;;;;2100398;28;1360;-83
2021/10/20 00:07:44;;;;;;;;;;;;;;;;;;2109135;28;1240;-83
2021/10/20 00:08:50;;;;;;;;;;;;;;;;;;2109384;28;1377;-84
2021/10/20 00:09:52;;;;;;;;;;;;;;;;;;2109690;28;1325;-84
2021/10/20 00:10:54;;;;;;;;;;;;;;;;;;2109447;28;1300;-84
2021/10/20 00:11:55;;;;;;;;;;;;;;;;;;2100926;28;1494;-83
2021/10/20 00:12:57;;;;;;;;;;;;;;;;;;2106771;28;2084;-84
2021/10/20 00:13:58;;;;;;;;;;;;;;;;;;2109270;28;1373;-83
2021/10/20 00:15:00;;;;;;;;;;;;;;;;;;2108928;28;1120;-83
2021/10/20 00:16:04;;;;;;;;;;;;;;;;;;2108855;28;1186;-82
2021/10/20 00:17:09;;;;;;;;;;;;;;;;;;2108589;28;1221;-83
2021/10/20 00:18:09;;;;;;;;;;;;;;;;;;2109283;28;1425;-83
2021/10/20 00:19:11;;;;;;;;;;;;;;;;;;2108718;28;1909;-84
2021/10/20 00:20:16;;;;;;;;;;;;;;;;;;2109044;28;1316;-83
2021/10/20 00:21:23;;;;;;;;;;;;;;;;;;2108656;28;1428;-84
2021/10/20 00:22:23;;;;;;;;;;;;;;;;;;2120268;27;2056;-84
2021/10/20 00:23:26;;;;;;;;;;;;;;;;;;2116950;28;1384;-84
2021/10/20 00:24:27;;;;;;;;;;;;;;;;;;2117326;28;1219;-84
2021/10/20 00:25:29;;;;;;;;;;;;;;;;;;2108703;28;1243;-84
2021/10/20 00:26:30;;;;;;;;;;;;;;;;;;2108994;28;1288;-84
2021/10/20 00:27:31;;;;;;;;;;;;;;;;;;2108466;28;1388;-84
2021/10/20 00:28:32;;;;;;;;;;;;;;;;;;2108818;28;1783;-84
2021/10/20 00:29:34;;;;;;;;;;;;;;;;;;2100430;28;1329;-84
2021/10/20 00:30:35;;;;;;;;;;;;;;;;;;2108602;28;1273;-85
2021/10/20 00:31:38;;;;;;;;;;;;;;;;;;2116695;28;1387;-84
2021/10/20 00:32:39;;;;;;;;;;;;;;;;;;2109075;28;1416;-84
2021/10/20 00:33:41;;;;;;;;;;;;;;;;;;2108833;28;1247;-84
2021/10/20 00:34:41;;;;;;;;;;;;;;;;;;2108796;28;1346;-84
2021/10/20 00:35:43;;;;;;;;;;;;;;;;;;2108739;28;1221;-84
2021/10/20 00:36:45;;;;;;;;;;;;;;;;;;2117531;27;1130;-84
2021/10/20 00:37:47;;;;;;;;;;;;;;;;;;2108436;28;1339;-85
2021/10/20 00:38:47;;;;;;;;;;;;;;;;;;2100052;28;1910;-84
2021/10/20 00:39:49;;;;;;;;;;;;;;;;;;2108920;28;1302;-84
2021/10/20 00:40:52;;;;;;;;;;;;;;;;;;2117344;28;781;-84
2021/10/20 00:41:54;;;;;;;;;;;;;;;;;;2116649;28;1293;-84
2021/10/20 00:42:55;;;;;;;;;;;;;;;;;;2108491;28;1781;-84
2021/10/20 00:43:57;;;;;;;;;;;;;;;;;;2108811;28;1224;-84
2021/10/20 00:44:59;;;;;;;;;;;;;;;;;;2108914;28;1337;-85
2021/10/20 00:46:01;;;;;;;;;;;;;;;;;;2108534;28;1230;-84
2021/10/20 00:47:07;;;;;;;;;;;;;;;;;;2099947;28;1388;-85
2021/10/20 00:48:10;;;;;;;;;;;;;;;;;;2101117;28;1309;-85
2021/10/20 00:49:11;;;;;;;;;;;;;;;;;;2108309;28;1535;-84
2021/10/20 00:50:15;;;;;;;;;;;;;;;;;;2108835;28;1272;-84
2021/10/20 00:51:15;;;;;;;;;;;;;;;;;;2100219;28;1353;-84
2021/10/20 00:52:19;;;;;;;;;;;;;;;;;;2101875;28;2046;-84
2021/10/20 00:53:20;;;;;;;;;;;;;;;;;;2117204;28;891;-85
2021/10/20 00:54:22;;;;;;;;;;;;;;;;;;2117432;28;1347;-84
2021/10/20 00:55:26;;;;;;;;;;;;;;;;;;2108354;28;1261;-85
2021/10/20 00:56:27;;;;;;;;;;;;;;;;;;2109231;28;1486;-85
2021/10/20 00:57:30;;;;;;;;;;;;;;;;;;2108032;28;1422;-85
2021/10/20 00:58:31;;;;;;;;;;;;;;;;;;2109151;28;1910;-84
2021/10/20 00:59:33;;;;;;;;;;;;;;;;;;2108479;28;1210;-85
2021/10/20 01:00:35;;;;;;;;;;;;;;;;;;2108741;28;1362;-85
2021/10/20 01:01:37;;;;;;;;;;;;;;;;;;2108165;28;1246;-85
2021/10/20 01:02:40;;;;;;;;;;;;;;;;;;2105337;28;2047;-85
2021/10/20 01:03:42;;;;;;;;;;;;;;;;;;2108530;28;1317;-85
2021/10/20 01:04:43;;;;;;;;;;;;;;;;;;2108990;28;1278;-85
2021/10/20 01:05:47;;;;;;;;;;;;;;;;;;2108941;28;1214;-85
2021/10/20 01:06:48;;;;;;;;;;;;;;;;;;2116880;28;910;-85
2021/10/20 01:07:50;;;;;;;;;;;;;;;;;;2107334;28;1383;-85
2021/10/20 01:08:51;;;;;;;;;;;;;;;;;;2092146;28;1378;-85
2021/10/20 01:09:52;;;;;;;;;;;;;;;;;;2091127;28;1487;-85
2021/10/20 01:10:53;;;;;;;;;;;;;;;;;;2104164;28;1320;-85
2021/10/20 01:11:55;;;;;;;;;;;;;;;;;;2116697;28;1214;-85
2021/10/20 01:12:57;;;;;;;;;;;;;;;;;;2109062;28;1248;-85
2021/10/20 01:13:58;;;;;;;;;;;;;;;;;;2100451;28;1237;-85
2021/10/20 01:15:00;;;;;;;;;;;;;;;;;;2100152;28;1389;-85
2021/10/20 01:16:02;;;;;;;;;;;;;;;;;;2113384;28;2094;-85
2021/10/20 01:17:04;;;;;;;;;;;;;;;;;;2116681;28;1989;-84
2021/10/20 01:18:07;;;;;;;;;;;;;;;;;;2108679;28;1373;-84
2021/10/20 01:19:09;;;;;;;;;;;;;;;;;;2113390;27;1914;-84
2021/10/20 01:20:10;;;;;;;;;;;;;;;;;;2108660;28;1354;-84
2021/10/20 01:21:17;;;;;;;;;;;;;;;;;;2099858;28;1353;-85
2021/10/20 01:22:18;;;;;;;;;;;;;;;;;;2109372;28;1427;-85
2021/10/20 01:23:20;;;;;;;;;;;;;;;;;;2108377;28;1409;-85
2021/10/20 01:24:21;;;;;;;;;;;;;;;;;;2117282;28;797;-85
2021/10/20 01:25:23;;;;;;;;;;;;;;;;;;2116913;28;1238;-85
2021/10/20 01:26:25;;;;;;;;;;;;;;;;;;2117116;28;1252;-84
2021/10/20 01:27:27;;;;;;;;;;;;;;;;;;2108972;28;1810;-84
2021/10/20 01:28:27;;;;;;;;;;;;;;;;;;2116662;27;1178;-84
2021/10/20 01:29:29;;;;;;;;;;;;;;;;;;2116393;28;1239;-85
2021/10/20 01:30:30;;;;;;;;;;;;;;;;;;2109133;28;2090;-85
2021/10/20 01:31:33;;;;;;;;;;;;;;;;;;2125536;27;1127;-85
2021/10/20 01:32:34;;;;;;;;;;;;;;;;;;2125597;27;1253;-85
2021/10/20 01:33:37;;;;;;;;;;;;;;;;;;2116424;27;1289;-85
2021/10/20 01:34:38;;;;;;;;;;;;;;;;;;2117158;28;1365;-85
2021/10/20 01:35:41;;;;;;;;;;;;;;;;;;2108302;28;1292;-85
2021/10/20 01:36:44;;;;;;;;;;;;;;;;;;2108777;27;1183;-85
2021/10/20 01:37:46;;;;;;;;;;;;;;;;;;2110702;28;1293;-85
2021/10/20 01:38:50;;;;;;;;;;;;;;;;;;2108230;28;1980;-85
2021/10/20 01:39:56;;;;;;;;;;;;;;;;;;2108413;28;1357;-85
2021/10/20 01:40:58;;;;;;;;;;;;;;;;;;2109367;27;1223;-86
2021/10/20 01:41:59;;;;;;;;;;;;;;;;;;2117089;28;1443;-85
2021/10/20 01:43:01;;;;;;;;;;;;;;;;;;2099890;28;1334;-85
2021/10/20 01:44:02;;;;;;;;;;;;;;;;;;2099615;28;1773;-85
2021/10/20 01:45:07;;;;;;;;;;;;;;;;;;2107942;28;1333;-85
2021/10/20 01:46:08;;;;;;;;;;;;;;;;;;2117124;27;1249;-85
2021/10/20 01:47:09;;;;;;;;;;;;;;;;;;2116206;28;1235;-85
2021/10/20 01:48:11;;;;;;;;;;;;;;;;;;2108585;28;1444;-85
2021/10/20 01:49:13;;;;;;;;;;;;;;;;;;2107936;28;1317;-85
2021/10/20 01:50:16;;;;;;;;;;;;;;;;;;2108677;28;1289;-85
2021/10/20 01:51:17;;;;;;;;;;;;;;;;;;2107964;28;1234;-85
2021/10/20 01:52:20;;;;;;;;;;;;;;;;;;2108074;28;1267;-85
2021/10/20 01:53:21;;;;;;;;;;;;;;;;;;2108405;28;1229;-85
2021/10/20 01:54:25;;;;;;;;;;;;;;;;;;2117005;28;1352;-85
2021/10/20 01:55:25;;;;;;;;;;;;;;;;;;2116541;27;1967;-85
2021/10/20 01:56:27;;;;;;;;;;;;;;;;;;2116906;28;891;-85
2021/10/20 01:57:28;;;;;;;;;;;;;;;;;;2111455;28;2104;-85
2021/10/20 01:58:32;;;;;;;;;;;;;;;;;;2099804;28;1325;-85
2021/10/20 01:59:32;;;;;;;;;;;;;;;;;;2099939;28;1976;-85
2021/10/20 02:00:34;;;;;;;;;;;;;;;;;;2107483;28;1349;-85
2021/10/20 02:01:35;;;;;;;;;;;;;;;;;;2108408;28;1320;-86
2021/10/20 02:02:37;;;;;;;;;;;;;;;;;;2107585;28;1408;-85
2021/10/20 02:03:38;;;;;;;;;;;;;;;;;;2099665;28;1208;-85
2021/10/20 02:04:42;;;;;;;;;;;;;;;;;;2108610;28;1369;-85
2021/10/20 02:05:44;;;;;;;;;;;;;;;;;;2108119;28;1324;-85
2021/10/20 02:06:44;;;;;;;;;;;;;;;;;;2108226;28;1450;-85
2021/10/20 02:07:48;;;;;;;;;;;;;;;;;;2108207;28;1505;-85
2021/10/20 02:08:48;;;;;;;;;;;;;;;;;;2108575;28;836;-85
2021/10/20 02:09:51;;;;;;;;;;;;;;;;;;2116541;28;1444;-85
2021/10/20 02:10:51;;;;;;;;;;;;;;;;;;2112262;28;1410;-85
2021/10/20 02:11:53;;;;;;;;;;;;;;;;;;2099688;28;1285;-85
2021/10/20 02:12:54;;;;;;;;;;;;;;;;;;2106847;28;2098;-85
2021/10/20 02:13:56;;;;;;;;;;;;;;;;;;2099546;28;1857;-85
2021/10/20 02:14:58;;;;;;;;;;;;;;;;;;2108454;28;1193;-86
2021/10/20 02:16:00;;;;;;;;;;;;;;;;;;2108519;28;1427;-85
2021/10/20 02:17:00;;;;;;;;;;;;;;;;;;2107940;28;1442;-86
2021/10/20 02:18:02;;;;;;;;;;;;;;;;;;2108279;28;1205;-85
2021/10/20 02:19:03;;;;;;;;;;;;;;;;;;2107576;28;1921;-86
2021/10/20 02:20:07;;;;;;;;;;;;;;;;;;2108166;28;1418;-85
2021/10/20 02:21:07;;;;;;;;;;;;;;;;;;2108413;28;1215;-85
2021/10/20 02:22:09;;;;;;;;;;;;;;;;;;2107571;28;1198;-85
2021/10/20 02:23:12;;;;;;;;;;;;;;;;;;2116874;28;1211;-85
2021/10/20 02:24:14;;;;;;;;;;;;;;;;;;2107777;28;1196;-85
2021/10/20 02:25:15;;;;;;;;;;;;;;;;;;2099576;28;1180;-85
2021/10/20 02:26:18;;;;;;;;;;;;;;;;;;2107687;28;1995;-85
2021/10/20 02:27:19;;;;;;;;;;;;;;;;;;2107724;28;1387;-85
2021/10/20 02:28:21;;;;;;;;;;;;;;;;;;2107893;28;1464;-85
2021/10/20 02:29:21;;;;;;;;;;;;;;;;;;2107858;28;1376;-85
2021/10/20 02:30:25;;;;;;;;;;;;;;;;;;2107793;28;1286;-85
2021/10/20 02:31:26;;;;;;;;;;;;;;;;;;2108396;28;939;-85
2021/10/20 02:32:28;;;;;;;;;;;;;;;;;;2111274;28;1306;-84
2021/10/20 02:33:28;;;;;;;;;;;;;;;;;;2108060;28;1297;-84
2021/10/20 02:34:31;;;;;;;;;;;;;;;;;;2116651;28;1238;-84
2021/10/20 02:35:31;;;;;;;;;;;;;;;;;;2108617;28;2040;-84
2021/10/20 02:36:34;;;;;;;;;;;;;;;;;;2124428;27;1201;-84
2021/10/20 02:37:35;;;;;;;;;;;;;;;;;;2124868;27;1207;-84
2021/10/20 02:38:40;;;;;;;;;;;;;;;;;;2116626;27;1227;-84
2021/10/20 02:39:41;;;;;;;;;;;;;;;;;;2116161;28;1909;-84
2021/10/20 02:40:43;;;;;;;;;;;;;;;;;;2113937;28;1316;-85
2021/10/20 02:41:44;;;;;;;;;;;;;;;;;;2107572;28;1319;-84
2021/10/20 02:42:47;;;;;;;;;;;;;;;;;;2115812;28;1262;-84
2021/10/20 02:43:49;;;;;;;;;;;;;;;;;;2116373;28;1360;-84
2021/10/20 02:44:51;;;;;;;;;;;;;;;;;;2107728;28;1210;-84
2021/10/20 02:45:51;;;;;;;;;;;;;;;;;;2107745;28;1332;-84
2021/10/20 02:46:53;;;;;;;;;;;;;;;;;;2116300;28;1337;-84
2021/10/20 02:47:55;;;;;;;;;;;;;;;;;;2108088;28;857;-84
2021/10/20 02:48:57;;;;;;;;;;;;;;;;;;2107835;28;1268;-84
2021/10/20 02:49:57;;;;;;;;;;;;;;;;;;2108186;28;1307;-84
2021/10/20 02:50:59;;;;;;;;;;;;;;;;;;2106914;28;2064;-84
2021/10/20 02:52:00;;;;;;;;;;;;;;;;;;2107258;28;1196;-84
2021/10/20 02:53:02;;;;;;;;;;;;;;;;;;2107399;28;1456;-84
2021/10/20 02:54:04;;;;;;;;;;;;;;;;;;2107445;28;1274;-84
2021/10/20 02:55:07;;;;;;;;;;;;;;;;;;2116397;28;1288;-84
2021/10/20 02:56:07;;;;;;;;;;;;;;;;;;2115949;28;1255;-84
2021/10/20 02:57:09;;;;;;;;;;;;;;;;;;2107895;28;1261;-85
2021/10/20 02:58:10;;;;;;;;;;;;;;;;;;2099310;28;1247;-82
2021/10/20 02:59:12;;;;;;;;;;;;;;;;;;2099705;28;1328;-85
2021/10/20 03:00:14;;;;;;;;;;;;;;;;;;2108054;28;1922;-84
2021/10/20 03:01:16;;;;;;;;;;;;;;;;;;2114798;28;2062;-84
2021/10/20 03:02:18;;;;;;;;;;;;;;;;;;2107769;28;1296;-85
2021/10/20 03:03:20;;;;;;;;;;;;;;;;;;2108070;28;1601;-84
2021/10/20 03:04:21;;;;;;;;;;;;;;;;;;2116276;28;1821;-84
2021/10/20 03:05:24;;;;;;;;;;;;;;;;;;2108069;28;1358;-84
2021/10/20 03:06:25;;;;;;;;;;;;;;;;;;2107500;28;1242;-84
2021/10/20 03:07:27;;;;;;;;;;;;;;;;;;2106965;28;1224;-85
2021/10/20 03:08:30;;;;;;;;;;;;;;;;;;2107923;28;1256;-84
2021/10/20 03:09:34;;;;;;;;;;;;;;;;;;2107976;28;1348;-84
2021/10/20 03:10:35;;;;;;;;;;;;;;;;;;2108964;28;1299;-82
2021/10/20 03:11:37;;;;;;;;;;;;;;;;;;2107207;28;1680;-82
2021/10/20 03:12:38;;;;;;;;;;;;;;;;;;2099415;28;1301;-82
2021/10/20 03:13:41;;;;;;;;;;;;;;;;;;2099630;28;1224;-82
2021/10/20 03:14:42;;;;;;;;;;;;;;;;;;2107885;28;1221;-82
2021/10/20 03:15:44;;;;;;;;;;;;;;;;;;2107425;28;1420;-83
2021/10/20 03:16:45;;;;;;;;;;;;;;;;;;2107667;28;1528;-86
2021/10/20 03:17:47;;;;;;;;;;;;;;;;;;2116355;28;878;-85
2021/10/20 03:18:48;;;;;;;;;;;;;;;;;;2116535;28;1196;-85
2021/10/20 03:19:50;;;;;;;;;;;;;;;;;;2107728;28;1914;-85
2021/10/20 03:20:51;;;;;;;;;;;;;;;;;;2116392;28;855;-85
2021/10/20 03:21:53;;;;;;;;;;;;;;;;;;2116040;28;1233;-85
2021/10/20 03:22:54;;;;;;;;;;;;;;;;;;2107536;28;1397;-85
2021/10/20 03:23:56;;;;;;;;;;;;;;;;;;2107821;28;1344;-85
2021/10/20 03:24:59;;;;;;;;;;;;;;;;;;2116251;28;1262;-85
2021/10/20 03:26:01;;;;;;;;;;;;;;;;;;2116243;28;1306;-84
2021/10/20 03:27:01;;;;;;;;;;;;;;;;;;2107486;28;1253;-84
2021/10/20 03:28:04;;;;;;;;;;;;;;;;;;2106498;28;2053;-85
2021/10/20 03:29:04;;;;;;;;;;;;;;;;;;2115801;28;1265;-85
2021/10/20 03:30:07;;;;;;;;;;;;;;;;;;2107790;28;1270;-85
2021/10/20 03:31:09;;;;;;;;;;;;;;;;;;2105611;28;1247;-85
2021/10/20 03:32:10;;;;;;;;;;;;;;;;;;2107920;28;1216;-85
2021/10/20 03:33:13;;;;;;;;;;;;;;;;;;2107790;28;1329;-84
2021/10/20 03:34:14;;;;;;;;;;;;;;;;;;2107617;28;1337;-83
2021/10/20 03:35:16;;;;;;;;;;;;;;;;;;2107538;28;1348;-83
2021/10/20 03:36:20;;;;;;;;;;;;;;;;;;2107445;28;1289;-84
2021/10/20 03:37:21;;;;;;;;;;;;;;;;;;2106697;28;2039;-83
2021/10/20 03:38:23;;;;;;;;;;;;;;;;;;2099305;28;1329;-83
2021/10/20 03:39:24;;;;;;;;;;;;;;;;;;2109445;28;1349;-83
2021/10/20 03:40:27;;;;;;;;;;;;;;;;;;2109260;28;2031;-84
2021/10/20 03:41:29;;;;;;;;;;;;;;;;;;2109313;28;1270;-83
2021/10/20 03:42:30;;;;;;;;;;;;;;;;;;2109306;28;1340;-84
2021/10/20 03:43:32;;;;;;;;;;;;;;;;;;2109318;28;1288;-84
2021/10/20 03:44:33;;;;;;;;;;;;;;;;;;2109063;28;1289;-84
2021/10/20 03:45:35;;;;;;;;;;;;;;;;;;2115636;28;1979;-85
2021/10/20 03:46:35;;;;;;;;;;;;;;;;;;2109459;28;1215;-85
2021/10/20 03:47:39;;;;;;;;;;;;;;;;;;2100251;28;1287;-84
2021/10/20 03:48:40;;;;;;;;;;;;;;;;;;2109727;28;1313;-84
2021/10/20 03:49:42;;;;;;;;;;;;;;;;;;2117699;28;1655;-85
2021/10/20 03:50:43;;;;;;;;;;;;;;;;;;2108801;28;1369;-85
2021/10/20 03:51:45;;;;;;;;;;;;;;;;;;2100644;28;1292;-85
2021/10/20 03:52:46;;;;;;;;;;;;;;;;;;2107002;28;2120;-85
2021/10/20 03:53:49;;;;;;;;;;;;;;;;;;2109153;28;1360;-85
2021/10/20 03:54:50;;;;;;;;;;;;;;;;;;2110003;28;1396;-85
2021/10/20 03:55:54;;;;;;;;;;;;;;;;;;2108777;28;2036;-85
2021/10/20 03:56:54;;;;;;;;;;;;;;;;;;2100991;28;1409;-84
2021/10/20 03:58:01;;;;;;;;;;;;;;;;;;2108154;28;1313;-85
2021/10/20 03:59:01;;;;;;;;;;;;;;;;;;2117744;28;1361;-85
2021/10/20 04:00:06;;;;;;;;;;;;;;;;;;2109622;28;1905;-87
2021/10/20 04:01:15;;;;;;;;;;;;;;;;;;2110228;28;720;-85
2021/10/20 04:02:15;;;;;;;;;;;;;;;;;;2111207;28;2105;-85
2021/10/20 04:03:18;;;;;;;;;;;;;;;;;;2100333;28;1306;-85
2021/10/20 04:04:19;;;;;;;;;;;;;;;;;;2101219;28;1398;-85
2021/10/20 04:05:22;;;;;;;;;;;;;;;;;;2100937;28;1278;-85
2021/10/20 04:06:23;;;;;;;;;;;;;;;;;;2100834;28;1222;-85
2021/10/20 04:07:24;;;;;;;;;;;;;;;;;;2108492;28;2029;-85
2021/10/20 04:08:25;;;;;;;;;;;;;;;;;;2109415;28;1226;-85
2021/10/20 04:09:27;;;;;;;;;;;;;;;;;;2100521;28;1148;-85
2021/10/20 04:10:29;;;;;;;;;;;;;;;;;;2109056;28;1366;-88
2021/10/20 04:11:32;;;;;;;;;;;;;;;;;;2117805;27;1320;-88
2021/10/20 04:12:34;;;;;;;;;;;;;;;;;;2113107;28;2003;-88
2021/10/20 04:13:34;;;;;;;;;;;;;;;;;;2100904;28;1199;-87
2021/10/20 04:14:37;;;;;;;;;;;;;;;;;;2109302;28;919;-88
2021/10/20 04:15:39;;;;;;;;;;;;;;;;;;2108512;28;1203;-87
2021/10/20 04:16:40;;;;;;;;;;;;;;;;;;2117690;27;1356;-86
2021/10/20 04:17:42;;;;;;;;;;;;;;;;;;2125663;27;1313;-87
2021/10/20 04:18:44;;;;;;;;;;;;;;;;;;2109319;28;1191;-87
2021/10/20 04:19:45;;;;;;;;;;;;;;;;;;2126136;27;1226;-86
2021/10/20 04:20:47;;;;;;;;;;;;;;;;;;2126288;27;1206;-87
2021/10/20 04:21:47;;;;;;;;;;;;;;;;;;2109290;28;1451;-86
2021/10/20 04:22:50;;;;;;;;;;;;;;;;;;2108575;28;1347;-86
2021/10/20 04:23:55;;;;;;;;;;;;;;;;;;2108425;28;1371;-86
2021/10/20 04:24:57;;;;;;;;;;;;;;;;;;2117562;28;1334;-85
2021/10/20 04:25:58;;;;;;;;;;;;;;;;;;2112926;28;2043;-82
2021/10/20 04:27:02;;;;;;;;;;;;;;;;;;2107757;28;1648;-82
2021/10/20 04:28:05;;;;;;;;;;;;;;;;;;2107528;28;1340;-83
2021/10/20 04:29:05;;;;;;;;;;;;;;;;;;2108462;28;1555;-83
2021/10/20 04:30:08;;;;;;;;;;;;;;;;;;2108681;28;1470;-83
2021/10/20 04:31:09;;;;;;;;;;;;;;;;;;2108388;28;1264;-83
2021/10/20 04:32:11;;;;;;;;;;;;;;;;;;2108575;28;1561;-83
2021/10/20 04:33:12;;;;;;;;;;;;;;;;;;2108382;28;1501;-83
2021/10/20 04:34:14;;;;;;;;;;;;;;;;;;2108655;28;1457;-82
2021/10/20 04:35:19;;;;;;;;;;;;;;;;;;2108933;28;804;-82
2021/10/20 04:36:20;;;;;;;;;;;;;;;;;;2116355;28;1839;-84
2021/10/20 04:37:24;;;;;;;;;;;;;;;;;;2107779;28;1725;-82
2021/10/20 04:38:27;;;;;;;;;;;;;;;;;;2109319;28;1259;-82
2021/10/20 04:39:28;;;;;;;;;;;;;;;;;;2108174;28;1662;-83
2021/10/20 04:40:30;;;;;;;;;;;;;;;;;;2108161;28;1971;-81
2021/10/20 04:41:30;;;;;;;;;;;;;;;;;;2108623;28;1343;-82
2021/10/20 04:42:34;;;;;;;;;;;;;;;;;;2108354;28;2159;-82
2021/10/20 04:43:36;;;;;;;;;;;;;;;;;;2117136;28;1230;-82
2021/10/20 04:44:38;;;;;;;;;;;;;;;;;;2116379;28;1815;-82
2021/10/20 04:45:39;;;;;;;;;;;;;;;;;;2108286;28;1321;-82
2021/10/20 04:46:40;;;;;;;;;;;;;;;;;;2108627;28;1359;-82
2021/10/20 04:47:41;;;;;;;;;;;;;;;;;;2116993;28;839;-81
2021/10/20 04:48:43;;;;;;;;;;;;;;;;;;2117162;28;1207;-81
2021/10/20 04:49:44;;;;;;;;;;;;;;;;;;2108212;28;1341;-82
2021/10/20 04:50:46;;;;;;;;;;;;;;;;;;2108431;28;1319;-82
2021/10/20 04:51:46;;;;;;;;;;;;;;;;;;2116906;28;1190;-82
2021/10/20 04:52:48;;;;;;;;;;;;;;;;;;2108240;28;2026;-82
2021/10/20 04:53:49;;;;;;;;;;;;;;;;;;2099721;28;1784;-82
2021/10/20 04:54:51;;;;;;;;;;;;;;;;;;2108745;28;1360;-82
2021/10/20 04:55:52;;;;;;;;;;;;;;;;;;2108649;28;1636;-82
2021/10/20 04:56:54;;;;;;;;;;;;;;;;;;2117347;28;1234;-83
2021/10/20 04:57:57;;;;;;;;;;;;;;;;;;2124548;27;1119;-82
2021/10/20 04:58:59;;;;;;;;;;;;;;;;;;2116917;28;1305;-83
2021/10/20 05:00:00;;;;;;;;;;;;;;;;;;2108329;28;1918;-83
2021/10/20 05:01:01;;;;;;;;;;;;;;;;;;2108381;28;1334;-82
2021/10/20 05:02:02;;;;;;;;;;;;;;;;;;2108708;28;1657;-82
2021/10/20 05:03:04;;;;;;;;;;;;;;;;;;2108417;28;1246;-81
2021/10/20 05:04:05;;;;;;;;;;;;;;;;;;2117112;28;1666;-82
2021/10/20 05:05:07;;;;;;;;;;;;;;;;;;2117130;28;1281;-82
2021/10/20 05:06:08;;;;;;;;;;;;;;;;;;2108542;28;1361;-82
2021/10/20 05:07:11;;;;;;;;;;;;;;;;;;2116178;28;2141;-83
2021/10/20 05:08:11;;;;;;;;;;;;;;;;;;2125692;27;854;-83
2021/10/20 05:09:13;;;;;;;;;;;;;;;;;;2116459;28;1333;-82
2021/10/20 05:10:14;;;;;;;;;;;;;;;;;;2108729;28;1385;-82
2021/10/20 05:11:16;;;;;;;;;;;;;;;;;;2099356;28;2034;-83
2021/10/20 05:12:17;;;;;;;;;;;;;;;;;;2100330;28;1556;-83
2021/10/20 05:13:20;;;;;;;;;;;;;;;;;;2108563;28;1433;-82
2021/10/20 05:14:22;;;;;;;;;;;;;;;;;;2108159;28;1180;-82
2021/10/20 05:15:24;;;;;;;;;;;;;;;;;;2108605;28;1282;-82
2021/10/20 05:16:26;;;;;;;;;;;;;;;;;;2109330;28;1268;-82
2021/10/20 05:17:27;;;;;;;;;;;;;;;;;;2116452;28;1521;-82
2021/10/20 05:18:29;;;;;;;;;;;;;;;;;;2106213;28;1388;-82
2021/10/20 05:19:30;;;;;;;;;;;;;;;;;;2117062;27;1040;-83
2021/10/20 05:20:31;;;;;;;;;;;;;;;;;;2116345;27;1918;-83
2021/10/20 05:21:32;;;;;;;;;;;;;;;;;;2108615;28;1175;-83
2021/10/20 05:22:34;;;;;;;;;;;;;;;;;;2103414;28;2011;-83
2021/10/20 05:23:35;;;;;;;;;;;;;;;;;;2108426;28;1380;-82
2021/10/20 05:24:37;;;;;;;;;;;;;;;;;;2108464;28;1282;-83
2021/10/20 05:25:38;;;;;;;;;;;;;;;;;;2110085;28;2012;-82
2021/10/20 05:26:40;;;;;;;;;;;;;;;;;;2117212;28;1246;-83
2021/10/20 05:27:41;;;;;;;;;;;;;;;;;;2108532;28;1205;-82
2021/10/20 05:28:44;;;;;;;;;;;;;;;;;;2108136;28;1536;-82
2021/10/20 05:29:45;;;;;;;;;;;;;;;;;;2117254;27;807;-83
2021/10/20 05:30:47;;;;;;;;;;;;;;;;;;2116976;28;1280;-83
2021/10/20 05:31:48;;;;;;;;;;;;;;;;;;2108822;28;1218;-83
2021/10/20 05:32:50;;;;;;;;;;;;;;;;;;2108318;28;2031;-83
2021/10/20 05:33:51;;;;;;;;;;;;;;;;;;2108523;28;1342;-83
2021/10/20 05:34:52;;;;;;;;;;;;;;;;;;2108614;28;1226;-83
2021/10/20 05:35:54;;;;;;;;;;;;;;;;;;2116825;28;1234;-83
2021/10/20 05:36:55;;;;;;;;;;;;;;;;;;2116764;28;1172;-82
2021/10/20 05:37:57;;;;;;;;;;;;;;;;;;2107743;28;1276;-82
2021/10/20 05:38:59;;;;;;;;;;;;;;;;;;2117084;28;994;-83
2021/10/20 05:40:00;;;;;;;;;;;;;;;;;;2117002;28;1286;-82
2021/10/20 05:41:02;;;;;;;;;;;;;;;;;;2116164;28;1964;-82
2021/10/20 05:42:03;;;;;;;;;;;;;;;;;;2113334;28;1518;-82
2021/10/20 05:43:05;;;;;;;;;;;;;;;;;;2105611;28;1573;-81
2021/10/20 05:44:08;;;;;;;;;;;;;;;;;;2102207;28;1372;-81
2021/10/20 05:45:10;;;;;;;;;;;;;;;;;;2091586;28;1341;-82
2021/10/20 05:46:12;;;;;;;;;;;;;;;;;;2094649;28;1342;-84
2021/10/20 05:47:13;;;;;;;;;;;;;;;;;;2108283;28;1419;-84
2021/10/20 05:48:15;;;;;;;;;;;;;;;;;;2115671;28;1380;-84
2021/10/20 05:49:16;;;;;;;;;;;;;;;;;;2101834;28;1363;-85
2021/10/20 05:50:18;;;;;;;;;;;;;;;;;;2101909;28;1419;-85
2021/10/20 05:51:19;;;;;;;;;;;;;;;;;;2101067;28;1850;-85
2021/10/20 05:52:21;;;;;;;;;;;;;;;;;;2104382;28;1288;-80
2021/10/20 05:53:21;;;;;;;;;;;;;;;;;;2106156;28;1689;-80
2021/10/20 05:54:23;;;;;;;;;;;;;;;;;;2108028;28;1534;-83
2021/10/20 05:55:24;;;;;;;;;;;;;;;;;;2107289;28;1759;-86
2021/10/20 05:56:26;;;;;;;;;;;;;;;;;;2104038;28;1470;-82
2021/10/20 05:57:28;;;;;;;;;;;;;;;;;;2107432;28;1769;-84
2021/10/20 05:58:29;;;;;;;;;;;;;;;;;;2107660;28;1336;-83
2021/10/20 05:59:32;;;;;;;;;;;;;;;;;;2116017;27;1253;-83
2021/10/20 06:00:34;;;;;;;;;;;;;;;;;;2105328;28;1914;-84
2021/10/20 06:01:35;;;;;;;;;;;;;;;;;;2098183;28;1581;-82
2021/10/20 06:02:36;;;;;;;;;;;;;;;;;;2100252;28;1376;-82
2021/10/20 06:03:37;;;;;;;;;;;;;;;;;;2107437;28;1412;-82
2021/10/20 06:04:39;;;;;;;;;;;;;;;;;;2116182;28;1392;-83
2021/10/20 06:05:39;;;;;;;;;;;;;;;;;;2107582;28;1351;-82
2021/10/20 06:06:41;;;;;;;;;;;;;;;;;;2116395;28;1298;-83
2021/10/20 06:07:43;;;;;;;;;;;;;;;;;;2105322;28;1480;-83
2021/10/20 06:08:45;;;;;;;;;;;;;;;;;;2113035;28;1438;-82
2021/10/20 06:09:45;;;;;;;;;;;;;;;;;;2102929;28;1312;-83
2021/10/20 06:10:47;;;;;;;;;;;;;;;;;;2111907;28;1440;-83
2021/10/20 06:11:53;;;;;;;;;;;;;;;;;;2113185;28;1420;-83
2021/10/20 06:12:54;;;;;;;;;;;;;;;;;;2111834;28;1218;-83
2021/10/20 06:13:56;;;;;;;;;;;;;;;;;;2112621;28;1412;-83
2021/10/20 06:14:58;;;;;;;;;;;;;;;;;;2100872;28;1245;-83
2021/10/20 06:16:00;;;;;;;;;;;;;;;;;;2112772;28;1662;-83
2021/10/20 06:17:00;;;;;;;;;;;;;;;;;;2105614;28;1342;-82
2021/10/20 06:18:02;;;;;;;;;;;;;;;;;;2103436;28;2121;-82
2021/10/20 06:19:03;;;;;;;;;;;;;;;;;;2107629;28;1415;-83
2021/10/20 06:20:06;;;;;;;;;;;;;;;;;;2107858;28;1309;-82
2021/10/20 06:21:07;;;;;;;;;;;;;;;;;;2115770;28;2049;-82
2021/10/20 06:22:09;;;;;;;;;;;;;;;;;;2107702;28;1741;-81
2021/10/20 06:23:09;;;;;;;;;;;;;;;;;;2098955;28;1379;-83
2021/10/20 06:24:11;;;;;;;;;;;;;;;;;;2106873;28;1317;-83
2021/10/20 06:25:12;;;;;;;;;;;;;;;;;;2104960;28;1366;-83
2021/10/20 06:26:14;;;;;;;;;;;;;;;;;;2112655;28;1952;-82
2021/10/20 06:27:15;;;;;;;;;;;;;;;;;;2114853;28;1748;-82
2021/10/20 06:28:17;;;;;;;;;;;;;;;;;;2101517;28;1439;-84
2021/10/20 06:29:18;;;;;;;;;;;;;;;;;;2120375;27;1468;-83
2021/10/20 06:30:22;;;;;;;;;;;;;;;;;;2119010;27;1533;-83
2021/10/20 06:31:22;;;;;;;;;;;;;;;;;;2109001;28;1866;-82
2021/10/20 06:32:24;;;;;;;;;;;;;;;;;;2114862;28;1791;-83
2021/10/20 06:33:25;;;;;;;;;;;;;;;;;;2104822;28;1327;-84
2021/10/20 06:34:27;;;;;;;;;;;;;;;;;;2101935;28;1426;-86
2021/10/20 06:35:27;;;;;;;;;;;;;;;;;;2107543;27;2036;-85
2021/10/20 06:36:31;;;;;;;;;;;;;;;;;;2113418;28;1546;-84
2021/10/20 06:37:32;;;;;;;;;;;;;;;;;;2107840;28;2058;-84
2021/10/20 06:38:34;;;;;;;;;;;;;;;;;;2103053;28;1717;-84
2021/10/20 06:39:35;;;;;;;;;;;;;;;;;;2115859;28;1313;-84
2021/10/20 06:40:37;;;;;;;;;;;;;;;;;;2106829;28;1703;-84
2021/10/20 06:41:38;;;;;;;;;;;;;;;;;;2107968;28;1271;-84
2021/10/20 06:42:39;;;;;;;;;;;;;;;;;;2110422;28;1786;-84
2021/10/20 06:43:41;;;;;;;;;;;;;;;;;;2107821;28;1368;-83
2021/10/20 06:44:43;;;;;;;;;;;;;;;;;;2107035;28;1421;-82
2021/10/20 06:45:45;;;;;;;;;;;;;;;;;;2102722;28;1695;-82
2021/10/20 06:46:47;;;;;;;;;;;;;;;;;;2112915;28;1344;-82
2021/10/20 06:47:48;;;;;;;;;;;;;;;;;;2101516;28;2029;-82
2021/10/20 06:48:49;;;;;;;;;;;;;;;;;;2107714;28;1429;-83
2021/10/20 06:49:50;;;;;;;;;;;;;;;;;;2107062;28;1386;-83
2021/10/20 06:50:52;;;;;;;;;;;;;;;;;;2106819;28;1834;-84
2021/10/20 06:51:52;;;;;;;;;;;;;;;;;;2107636;28;1269;-82
2021/10/20 06:52:54;;;;;;;;;;;;;;;;;;2113464;28;2038;-83
2021/10/20 06:53:55;;;;;;;;;;;;;;;;;;2107632;28;1546;-82
2021/10/20 06:54:57;;;;;;;;;;;;;;;;;;2099294;28;1440;-82
2021/10/20 06:55:58;;;;;;;;;;;;;;;;;;2108187;28;1909;-82
2021/10/20 06:57:00;;;;;;;;;;;;;;;;;;2107051;28;1297;-85
2021/10/20 06:58:01;;;;;;;;;;;;;;;;;;2109908;28;2005;-82
2021/10/20 06:59:03;;;;;;;;;;;;;;;;;;2106987;28;1210;-82
2021/10/20 07:00:04;;;;;;;;;;;;;;;;;;2099744;28;1329;-82
2021/10/20 07:01:07;;;;;;;;;;;;;;;;;;2112718;28;1978;-82
2021/10/20 07:02:08;;;;;;;;;;;;;;;;;;2108398;27;2041;-82
2021/10/20 07:03:10;;;;;;;;;;;;;;;;;;2116426;28;908;-84
2021/10/20 07:04:11;;;;;;;;;;;;;;;;;;2107540;28;1447;-84
2021/10/20 07:05:13;;;;;;;;;;;;;;;;;;2099622;28;1211;-83
2021/10/20 07:06:15;;;;;;;;;;;;;;;;;;2100922;28;1799;-84
2021/10/20 07:07:17;;;;;;;;;;;;;;;;;;2104383;28;1649;-85
2021/10/20 07:08:18;;;;;;;;;;;;;;;;;;2107401;28;1383;-82
2021/10/20 07:09:19;;;;;;;;;;;;;;;;;;2102262;28;1400;-82